Terminal Aerodrome Forecast
Issued by NWS Raleigh/Durham, NC

Home | Current Version | Previous Version | Text Only | Print | Product List | Glossary On
Versions: 1 2 3 4 5 6 7 8 9 10 11 12 13 14 15 16 17 18 19 20 21 22 23 24 25 26 27 28
000
FTUS42 KRAH 301121
TAFFAY
TAF
KFAY 301121Z 3012/3112 VRB04KT P6SM SCT100 BKN250
     FM310000 VRB03KT P6SM OVC100
     FM310600 23002KT P6SM VCSH OVC050
      TEMPO 3109/3112 4SM -RA OVC025=

USA.gov is the U.S. government's official web portal to all federal, state and local government web resources and services.